sensor_id;sensor_type;location;lat;lon;timestamp;P1;durP1;ratioP1;P2;durP2;ratioP2
81912;SDS011;71377;50.698;7.164;2024-02-21T00:02:11;9.40;;;4.32;;
81912;SDS011;71377;50.698;7.164;2024-02-21T00:04:37;9.68;;;4.30;;
81912;SDS011;71377;50.698;7.164;2024-02-21T00:07:05;9.85;;;4.25;;
81912;SDS011;71377;50.698;7.164;2024-02-21T00:09:31;9.40;;;4.53;;
81912;SDS011;71377;50.698;7.164;2024-02-21T00:11:57;9.68;;;4.28;;
81912;SDS011;71377;50.698;7.164;2024-02-21T00:14:25;10.32;;;4.38;;
81912;SDS011;71377;50.698;7.164;2024-02-21T00:16:52;11.20;;;4.45;;
81912;SDS011;71377;50.698;7.164;2024-02-21T00:19:18;11.55;;;4.35;;
81912;SDS011;71377;50.698;7.164;2024-02-21T00:21:45;9.18;;;4.18;;
81912;SDS011;71377;50.698;7.164;2024-02-21T00:24:11;9.48;;;4.57;;
81912;SDS011;71377;50.698;7.164;2024-02-21T00:26:38;11.40;;;4.45;;
81912;SDS011;71377;50.698;7.164;2024-02-21T00:29:04;9.40;;;4.53;;
81912;SDS011;71377;50.698;7.164;2024-02-21T00:31:34;12.07;;;4.70;;
81912;SDS011;71377;50.698;7.164;2024-02-21T00:34:00;9.23;;;4.40;;
81912;SDS011;71377;50.698;7.164;2024-02-21T00:36:27;9.98;;;4.60;;
81912;SDS011;71377;50.698;7.164;2024-02-21T00:38:53;8.70;;;4.13;;
81912;SDS011;71377;50.698;7.164;2024-02-21T00:41:20;9.77;;;4.20;;
81912;SDS011;71377;50.698;7.164;2024-02-21T00:43:46;9.77;;;4.93;;
81912;SDS011;71377;50.698;7.164;2024-02-21T00:46:15;9.55;;;4.53;;
81912;SDS011;71377;50.698;7.164;2024-02-21T00:48:41;11.95;;;5.00;;
81912;SDS011;71377;50.698;7.164;2024-02-21T00:51:08;9.82;;;4.40;;
81912;SDS011;71377;50.698;7.164;2024-02-21T00:53:34;7.10;;;4.05;;
81912;SDS011;71377;50.698;7.164;2024-02-21T00:56:07;10.98;;;4.28;;
81912;SDS011;71377;50.698;7.164;2024-02-21T00:58:33;8.32;;;4.32;;
81912;SDS011;71377;50.698;7.164;2024-02-21T01:01:00;8.55;;;4.60;;
81912;SDS011;71377;50.698;7.164;2024-02-21T01:03:27;7.88;;;3.97;;
81912;SDS011;71377;50.698;7.164;2024-02-21T01:05:54;9.45;;;4.05;;
81912;SDS011;71377;50.698;7.164;2024-02-21T01:08:20;9.45;;;4.22;;
81912;SDS011;71377;50.698;7.164;2024-02-21T01:10:47;10.20;;;4.30;;
81912;SDS011;71377;50.698;7.164;2024-02-21T01:13:13;9.73;;;4.32;;
81912;SDS011;71377;50.698;7.164;2024-02-21T01:15:40;9.82;;;4.15;;
81912;SDS011;71377;50.698;7.164;2024-02-21T01:18:06;11.35;;;4.22;;
81912;SDS011;71377;50.698;7.164;2024-02-21T01:20:33;8.70;;;4.38;;
81912;SDS011;71377;50.698;7.164;2024-02-21T01:22:59;8.70;;;4.18;;
81912;SDS011;71377;50.698;7.164;2024-02-21T01:25:26;10.98;;;3.97;;
81912;SDS011;71377;50.698;7.164;2024-02-21T01:27:53;7.70;;;3.80;;
81912;SDS011;71377;50.698;7.164;2024-02-21T01:30:19;13.07;;;4.68;;
81912;SDS011;71377;50.698;7.164;2024-02-21T01:32:46;11.65;;;4.50;;
81912;SDS011;71377;50.698;7.164;2024-02-21T01:35:12;10.43;;;4.45;;
81912;SDS011;71377;50.698;7.164;2024-02-21T01:37:39;8.80;;;3.83;;
81912;SDS011;71377;50.698;7.164;2024-02-21T01:40:06;12.65;;;4.10;;
81912;SDS011;71377;50.698;7.164;2024-02-21T01:42:33;7.97;;;3.80;;
81912;SDS011;71377;50.698;7.164;2024-02-21T01:44:59;10.25;;;4.28;;
81912;SDS011;71377;50.698;7.164;2024-02-21T01:47:25;9.50;;;4.10;;
81912;SDS011;71377;50.698;7.164;2024-02-21T01:49:52;11.07;;;4.15;;
81912;SDS011;71377;50.698;7.164;2024-02-21T01:52:18;10.02;;;4.68;;
81912;SDS011;71377;50.698;7.164;2024-02-21T01:54:45;12.60;;;4.10;;
81912;SDS011;71377;50.698;7.164;2024-02-21T01:57:13;10.02;;;4.10;;
81912;SDS011;71377;50.698;7.164;2024-02-21T01:59:39;6.85;;;3.60;;
81912;SDS011;71377;50.698;7.164;2024-02-21T02:02:06;11.43;;;4.40;;
81912;SDS011;71377;50.698;7.164;2024-02-21T02:04:32;11.75;;;4.32;;
81912;SDS011;71377;50.698;7.164;2024-02-21T02:07:02;10.70;;;3.95;;
81912;SDS011;71377;50.698;7.164;2024-02-21T02:09:30;9.02;;;3.90;;
81912;SDS011;71377;50.698;7.164;2024-02-21T02:11:56;12.65;;;4.57;;
81912;SDS011;71377;50.698;7.164;2024-02-21T02:14:25;10.07;;;3.65;;
81912;SDS011;71377;50.698;7.164;2024-02-21T02:16:51;13.77;;;4.20;;
81912;SDS011;71377;50.698;7.164;2024-02-21T02:19:18;8.02;;;3.50;;
81912;SDS011;71377;50.698;7.164;2024-02-21T02:21:52;11.82;;;4.35;;
81912;SDS011;71377;50.698;7.164;2024-02-21T02:24:23;10.82;;;3.80;;
81912;SDS011;71377;50.698;7.164;2024-02-21T02:26:51;12.77;;;4.72;;
81912;SDS011;71377;50.698;7.164;2024-02-21T02:29:17;12.68;;;4.40;;
81912;SDS011;71377;50.698;7.164;2024-02-21T02:31:44;10.77;;;4.03;;
81912;SDS011;71377;50.698;7.164;2024-02-21T02:34:10;10.63;;;4.07;;
81912;SDS011;71377;50.698;7.164;2024-02-21T02:36:37;9.60;;;3.88;;
81912;SDS011;71377;50.698;7.164;2024-02-21T02:39:03;7.88;;;3.20;;
81912;SDS011;71377;50.698;7.164;2024-02-21T02:41:29;7.60;;;3.30;;
81912;SDS011;71377;50.698;7.164;2024-02-21T02:43:56;8.30;;;4.07;;
81912;SDS011;71377;50.698;7.164;2024-02-21T02:46:22;9.80;;;3.35;;
81912;SDS011;71377;50.698;7.164;2024-02-21T02:48:48;10.95;;;3.90;;
81912;SDS011;71377;50.698;7.164;2024-02-21T02:51:15;13.05;;;3.67;;
81912;SDS011;71377;50.698;7.164;2024-02-21T02:53:41;12.52;;;3.90;;
81912;SDS011;71377;50.698;7.164;2024-02-21T02:56:13;10.50;;;3.50;;
81912;SDS011;71377;50.698;7.164;2024-02-21T02:58:40;10.00;;;3.60;;
81912;SDS011;71377;50.698;7.164;2024-02-21T03:01:07;13.38;;;3.85;;
81912;SDS011;71377;50.698;7.164;2024-02-21T03:03:33;10.23;;;4.25;;
81912;SDS011;71377;50.698;7.164;2024-02-21T03:06:00;12.48;;;3.97;;
81912;SDS011;71377;50.698;7.164;2024-02-21T03:08:27;6.95;;;3.53;;
81912;SDS011;71377;50.698;7.164;2024-02-21T03:10:53;9.75;;;3.58;;
81912;SDS011;71377;50.698;7.164;2024-02-21T03:13:20;10.40;;;3.60;;
81912;SDS011;71377;50.698;7.164;2024-02-21T03:15:46;10.57;;;4.93;;
81912;SDS011;71377;50.698;7.164;2024-02-21T03:18:12;15.27;;;4.30;;
81912;SDS011;71377;50.698;7.164;2024-02-21T03:20:39;13.45;;;3.88;;
81912;SDS011;71377;50.698;7.164;2024-02-21T03:23:05;11.20;;;3.88;;
81912;SDS011;71377;50.698;7.164;2024-02-21T03:25:32;10.07;;;3.80;;
81912;SDS011;71377;50.698;7.164;2024-02-21T03:27:58;10.35;;;3.90;;
81912;SDS011;71377;50.698;7.164;2024-02-21T03:30:24;11.70;;;4.25;;
81912;SDS011;71377;50.698;7.164;2024-02-21T03:32:51;13.52;;;4.40;;
81912;SDS011;71377;50.698;7.164;2024-02-21T03:35:17;11.38;;;3.85;;
81912;SDS011;71377;50.698;7.164;2024-02-21T03:37:44;8.43;;;3.60;;
81912;SDS011;71377;50.698;7.164;2024-02-21T03:40:12;10.95;;;4.03;;
81912;SDS011;71377;50.698;7.164;2024-02-21T03:42:38;12.02;;;3.55;;
81912;SDS011;71377;50.698;7.164;2024-02-21T03:45:05;8.23;;;3.67;;
81912;SDS011;71377;50.698;7.164;2024-02-21T03:47:31;11.40;;;3.60;;
81912;SDS011;71377;50.698;7.164;2024-02-21T03:49:58;7.63;;;3.60;;
81912;SDS011;71377;50.698;7.164;2024-02-21T03:52:26;11.05;;;3.83;;
81912;SDS011;71377;50.698;7.164;2024-02-21T03:54:53;12.40;;;4.10;;
81912;SDS011;71377;50.698;7.164;2024-02-21T03:57:21;7.80;;;3.45;;
81912;SDS011;71377;50.698;7.164;2024-02-21T03:59:50;10.90;;;3.58;;
81912;SDS011;71377;50.698;7.164;2024-02-21T04:02:17;10.05;;;4.05;;
81912;SDS011;71377;50.698;7.164;2024-02-21T04:04:44;10.65;;;3.80;;
81912;SDS011;71377;50.698;7.164;2024-02-21T04:07:14;6.50;;;3.72;;
81912;SDS011;71377;50.698;7.164;2024-02-21T04:09:41;7.85;;;3.45;;
81912;SDS011;71377;50.698;7.164;2024-02-21T04:12:08;13.52;;;4.20;;
81912;SDS011;71377;50.698;7.164;2024-02-21T04:14:34;8.63;;;3.58;;
81912;SDS011;71377;50.698;7.164;2024-02-21T04:17:01;12.65;;;4.40;;
81912;SDS011;71377;50.698;7.164;2024-02-21T04:19:27;9.65;;;3.60;;
81912;SDS011;71377;50.698;7.164;2024-02-21T04:21:54;11.05;;;4.60;;
81912;SDS011;71377;50.698;7.164;2024-02-21T04:24:20;32.92;;;10.52;;
81912;SDS011;71377;50.698;7.164;2024-02-21T04:26:47;10.98;;;4.43;;
81912;SDS011;71377;50.698;7.164;2024-02-21T04:29:13;14.70;;;5.50;;
81912;SDS011;71377;50.698;7.164;2024-02-21T04:31:39;12.57;;;5.22;;
81912;SDS011;71377;50.698;7.164;2024-02-21T04:34:06;10.07;;;4.38;;
81912;SDS011;71377;50.698;7.164;2024-02-21T04:36:32;12.23;;;3.42;;
81912;SDS011;71377;50.698;7.164;2024-02-21T04:38:59;10.98;;;3.92;;
81912;SDS011;71377;50.698;7.164;2024-02-21T04:41:25;9.23;;;3.78;;
81912;SDS011;71377;50.698;7.164;2024-02-21T04:43:52;9.30;;;3.35;;
81912;SDS011;71377;50.698;7.164;2024-02-21T04:46:18;11.88;;;3.55;;
81912;SDS011;71377;50.698;7.164;2024-02-21T04:48:45;9.57;;;3.60;;
81912;SDS011;71377;50.698;7.164;2024-02-21T04:51:11;6.22;;;3.40;;
81912;SDS011;71377;50.698;7.164;2024-02-21T04:53:39;7.20;;;3.35;;
81912;SDS011;71377;50.698;7.164;2024-02-21T04:56:06;6.93;;;2.95;;
81912;SDS011;71377;50.698;7.164;2024-02-21T04:58:32;8.95;;;3.30;;
81912;SDS011;71377;50.698;7.164;2024-02-21T05:00:59;8.68;;;3.63;;
81912;SDS011;71377;50.698;7.164;2024-02-21T05:03:25;10.02;;;3.50;;
81912;SDS011;71377;50.698;7.164;2024-02-21T05:05:52;9.52;;;3.58;;
81912;SDS011;71377;50.698;7.164;2024-02-21T05:08:18;9.90;;;3.15;;
81912;SDS011;71377;50.698;7.164;2024-02-21T05:10:45;8.15;;;2.80;;
81912;SDS011;71377;50.698;7.164;2024-02-21T05:13:11;9.85;;;3.28;;
81912;SDS011;71377;50.698;7.164;2024-02-21T05:15:37;9.80;;;2.90;;
81912;SDS011;71377;50.698;7.164;2024-02-21T05:18:04;8.75;;;2.83;;
81912;SDS011;71377;50.698;7.164;2024-02-21T05:20:30;7.38;;;2.72;;
81912;SDS011;71377;50.698;7.164;2024-02-21T05:22:57;10.45;;;3.05;;
81912;SDS011;71377;50.698;7.164;2024-02-21T05:25:23;6.65;;;2.75;;
81912;SDS011;71377;50.698;7.164;2024-02-21T05:27:50;6.18;;;2.80;;
81912;SDS011;71377;50.698;7.164;2024-02-21T05:30:19;8.32;;;3.03;;
81912;SDS011;71377;50.698;7.164;2024-02-21T05:32:46;8.30;;;3.05;;
81912;SDS011;71377;50.698;7.164;2024-02-21T05:35:13;5.55;;;2.53;;
81912;SDS011;71377;50.698;7.164;2024-02-21T05:37:39;7.50;;;2.92;;
81912;SDS011;71377;50.698;7.164;2024-02-21T05:40:06;8.93;;;2.85;;
81912;SDS011;71377;50.698;7.164;2024-02-21T05:42:32;7.43;;;3.00;;
81912;SDS011;71377;50.698;7.164;2024-02-21T05:44:59;6.95;;;2.60;;
81912;SDS011;71377;50.698;7.164;2024-02-21T05:47:25;7.80;;;2.70;;
81912;SDS011;71377;50.698;7.164;2024-02-21T05:49:52;8.02;;;2.78;;
81912;SDS011;71377;50.698;7.164;2024-02-21T05:52:20;6.32;;;3.20;;
81912;SDS011;71377;50.698;7.164;2024-02-21T05:54:47;6.45;;;2.92;;
81912;SDS011;71377;50.698;7.164;2024-02-21T05:57:19;8.13;;;2.55;;
81912;SDS011;71377;50.698;7.164;2024-02-21T05:59:45;5.85;;;2.67;;
81912;SDS011;71377;50.698;7.164;2024-02-21T06:02:11;9.40;;;3.00;;
81912;SDS011;71377;50.698;7.164;2024-02-21T06:04:39;6.55;;;3.17;;
81912;SDS011;71377;50.698;7.164;2024-02-21T06:07:06;7.78;;;3.20;;
81912;SDS011;71377;50.698;7.164;2024-02-21T06:09:32;8.88;;;3.03;;
81912;SDS011;71377;50.698;7.164;2024-02-21T06:11:58;8.43;;;2.90;;
81912;SDS011;71377;50.698;7.164;2024-02-21T06:14:25;8.23;;;3.15;;
81912;SDS011;71377;50.698;7.164;2024-02-21T06:16:51;10.32;;;3.10;;
81912;SDS011;71377;50.698;7.164;2024-02-21T06:19:18;8.25;;;3.25;;
81912;SDS011;71377;50.698;7.164;2024-02-21T06:21:45;8.77;;;3.00;;
81912;SDS011;71377;50.698;7.164;2024-02-21T06:24:11;12.05;;;3.22;;
81912;SDS011;71377;50.698;7.164;2024-02-21T06:26:39;6.97;;;3.08;;
81912;SDS011;71377;50.698;7.164;2024-02-21T06:29:06;9.88;;;3.13;;
81912;SDS011;71377;50.698;7.164;2024-02-21T06:31:33;8.52;;;3.10;;
81912;SDS011;71377;50.698;7.164;2024-02-21T06:34:01;12.68;;;3.78;;
81912;SDS011;71377;50.698;7.164;2024-02-21T06:36:27;12.07;;;3.78;;
81912;SDS011;71377;50.698;7.164;2024-02-21T06:38:53;13.52;;;2.92;;
81912;SDS011;71377;50.698;7.164;2024-02-21T06:41:20;10.23;;;3.10;;
81912;SDS011;71377;50.698;7.164;2024-02-21T06:43:47;5.32;;;2.80;;
81912;SDS011;71377;50.698;7.164;2024-02-21T06:46:23;7.45;;;2.95;;
81912;SDS011;71377;50.698;7.164;2024-02-21T06:48:51;12.68;;;3.15;;
81912;SDS011;71377;50.698;7.164;2024-02-21T06:51:18;9.82;;;3.22;;
81912;SDS011;71377;50.698;7.164;2024-02-21T06:53:44;9.88;;;2.80;;
81912;SDS011;71377;50.698;7.164;2024-02-21T06:56:11;8.60;;;3.28;;
81912;SDS011;71377;50.698;7.164;2024-02-21T06:58:37;8.15;;;3.20;;
81912;SDS011;71377;50.698;7.164;2024-02-21T07:01:04;12.25;;;3.33;;
81912;SDS011;71377;50.698;7.164;2024-02-21T07:03:30;8.63;;;2.75;;
81912;SDS011;71377;50.698;7.164;2024-02-21T07:05:57;10.90;;;3.35;;
81912;SDS011;71377;50.698;7.164;2024-02-21T07:08:23;7.32;;;3.03;;
81912;SDS011;71377;50.698;7.164;2024-02-21T07:10:50;7.32;;;3.35;;
81912;SDS011;71377;50.698;7.164;2024-02-21T07:13:16;11.45;;;3.60;;
81912;SDS011;71377;50.698;7.164;2024-02-21T07:15:43;9.93;;;3.53;;
81912;SDS011;71377;50.698;7.164;2024-02-21T07:18:10;8.25;;;3.45;;
81912;SDS011;71377;50.698;7.164;2024-02-21T07:20:36;9.20;;;3.50;;
81912;SDS011;71377;50.698;7.164;2024-02-21T07:23:03;9.40;;;3.30;;
81912;SDS011;71377;50.698;7.164;2024-02-21T07:25:30;10.38;;;3.67;;
81912;SDS011;71377;50.698;7.164;2024-02-21T07:27:56;7.95;;;3.50;;
81912;SDS011;71377;50.698;7.164;2024-02-21T07:30:23;8.27;;;3.03;;
81912;SDS011;71377;50.698;7.164;2024-02-21T07:32:49;9.20;;;3.25;;
81912;SDS011;71377;50.698;7.164;2024-02-21T07:35:17;9.55;;;3.97;;
81912;SDS011;71377;50.698;7.164;2024-02-21T07:37:44;10.95;;;3.78;;
81912;SDS011;71377;50.698;7.164;2024-02-21T07:40:14;11.50;;;3.47;;
81912;SDS011;71377;50.698;7.164;2024-02-21T07:42:42;9.00;;;3.53;;
81912;SDS011;71377;50.698;7.164;2024-02-21T07:45:13;10.82;;;3.70;;
81912;SDS011;71377;50.698;7.164;2024-02-21T07:47:40;9.68;;;4.25;;
81912;SDS011;71377;50.698;7.164;2024-02-21T07:50:06;9.35;;;3.72;;
81912;SDS011;71377;50.698;7.164;2024-02-21T07:52:33;10.65;;;3.80;;
81912;SDS011;71377;50.698;7.164;2024-02-21T07:55:00;10.50;;;4.07;;
81912;SDS011;71377;50.698;7.164;2024-02-21T07:57:26;9.80;;;4.00;;
81912;SDS011;71377;50.698;7.164;2024-02-21T07:59:53;9.10;;;3.38;;
81912;SDS011;71377;50.698;7.164;2024-02-21T08:02:20;7.13;;;3.30;;
81912;SDS011;71377;50.698;7.164;2024-02-21T08:04:46;8.60;;;3.53;;
81912;SDS011;71377;50.698;7.164;2024-02-21T08:07:13;12.95;;;4.10;;
81912;SDS011;71377;50.698;7.164;2024-02-21T08:09:39;10.02;;;3.08;;
81912;SDS011;71377;50.698;7.164;2024-02-21T08:12:06;15.15;;;3.80;;
81912;SDS011;71377;50.698;7.164;2024-02-21T08:14:33;10.18;;;3.55;;
81912;SDS011;71377;50.698;7.164;2024-02-21T08:16:59;8.52;;;3.65;;
81912;SDS011;71377;50.698;7.164;2024-02-21T08:19:26;9.93;;;3.53;;
81912;SDS011;71377;50.698;7.164;2024-02-21T08:21:53;9.80;;;3.60;;
81912;SDS011;71377;50.698;7.164;2024-02-21T08:24:19;10.55;;;3.53;;
81912;SDS011;71377;50.698;7.164;2024-02-21T08:26:46;7.30;;;3.20;;
81912;SDS011;71377;50.698;7.164;2024-02-21T08:29:12;11.07;;;4.10;;
81912;SDS011;71377;50.698;7.164;2024-02-21T08:31:39;8.48;;;3.38;;
81912;SDS011;71377;50.698;7.164;2024-02-21T08:34:06;9.23;;;3.60;;
81912;SDS011;71377;50.698;7.164;2024-02-21T08:36:33;10.50;;;3.50;;
81912;SDS011;71377;50.698;7.164;2024-02-21T08:39:00;8.43;;;3.40;;
81912;SDS011;71377;50.698;7.164;2024-02-21T08:41:31;8.48;;;3.47;;
81912;SDS011;71377;50.698;7.164;2024-02-21T08:44:17;8.15;;;3.38;;
81912;SDS011;71377;50.698;7.164;2024-02-21T08:46:44;8.50;;;3.78;;
81912;SDS011;71377;50.698;7.164;2024-02-21T08:49:10;11.90;;;3.65;;
81912;SDS011;71377;50.698;7.164;2024-02-21T08:51:37;8.85;;;3.38;;
81912;SDS011;71377;50.698;7.164;2024-02-21T08:54:04;9.52;;;3.50;;
81912;SDS011;71377;50.698;7.164;2024-02-21T08:56:30;11.07;;;3.83;;
81912;SDS011;71377;50.698;7.164;2024-02-21T08:58:57;11.65;;;3.78;;
81912;SDS011;71377;50.698;7.164;2024-02-21T09:01:24;9.52;;;3.78;;
81912;SDS011;71377;50.698;7.164;2024-02-21T09:03:50;8.35;;;3.50;;
81912;SDS011;71377;50.698;7.164;2024-02-21T09:06:20;11.93;;;3.83;;
81912;SDS011;71377;50.698;7.164;2024-02-21T09:08:46;7.82;;;3.33;;
81912;SDS011;71377;50.698;7.164;2024-02-21T09:11:13;8.82;;;3.05;;
81912;SDS011;71377;50.698;7.164;2024-02-21T09:13:39;8.25;;;3.30;;
81912;SDS011;71377;50.698;7.164;2024-02-21T09:16:05;9.48;;;3.88;;
81912;SDS011;71377;50.698;7.164;2024-02-21T09:18:32;9.95;;;2.95;;
81912;SDS011;71377;50.698;7.164;2024-02-21T09:20:58;9.27;;;3.40;;
81912;SDS011;71377;50.698;7.164;2024-02-21T09:23:25;12.52;;;3.22;;
81912;SDS011;71377;50.698;7.164;2024-02-21T09:25:51;10.43;;;3.55;;
81912;SDS011;71377;50.698;7.164;2024-02-21T09:28:17;12.15;;;3.22;;
81912;SDS011;71377;50.698;7.164;2024-02-21T09:30:45;11.65;;;3.38;;
81912;SDS011;71377;50.698;7.164;2024-02-21T09:33:12;10.48;;;3.67;;
81912;SDS011;71377;50.698;7.164;2024-02-21T09:35:47;16.58;;;4.40;;
81912;SDS011;71377;50.698;7.164;2024-02-21T09:38:14;12.15;;;3.83;;
81912;SDS011;71377;50.698;7.164;2024-02-21T09:40:41;14.65;;;4.20;;
81912;SDS011;71377;50.698;7.164;2024-02-21T09:43:08;10.45;;;4.25;;
81912;SDS011;71377;50.698;7.164;2024-02-21T09:45:35;13.32;;;3.83;;
81912;SDS011;71377;50.698;7.164;2024-02-21T09:51:01;10.05;;;3.45;;
81912;SDS011;71377;50.698;7.164;2024-02-21T09:53:28;9.60;;;2.80;;
81912;SDS011;71377;50.698;7.164;2024-02-21T09:55:57;9.50;;;3.10;;
81912;SDS011;71377;50.698;7.164;2024-02-21T09:58:25;8.05;;;3.03;;
81912;SDS011;71377;50.698;7.164;2024-02-21T10:00:53;8.35;;;2.70;;
81912;SDS011;71377;50.698;7.164;2024-02-21T10:03:20;7.03;;;2.63;;
81912;SDS011;71377;50.698;7.164;2024-02-21T10:05:49;8.45;;;3.30;;
81912;SDS011;71377;50.698;7.164;2024-02-21T10:08:16;6.65;;;3.13;;
81912;SDS011;71377;50.698;7.164;2024-02-21T10:10:44;11.60;;;3.70;;
81912;SDS011;71377;50.698;7.164;2024-02-21T10:13:23;12.80;;;3.65;;
81912;SDS011;71377;50.698;7.164;2024-02-21T10:16:00;7.53;;;3.03;;
81912;SDS011;71377;50.698;7.164;2024-02-21T10:18:27;8.07;;;3.28;;
81912;SDS011;71377;50.698;7.164;2024-02-21T10:21:04;8.25;;;3.47;;
81912;SDS011;71377;50.698;7.164;2024-02-21T10:23:45;7.40;;;3.00;;
81912;SDS011;71377;50.698;7.164;2024-02-21T10:26:13;8.77;;;2.90;;
81912;SDS011;71377;50.698;7.164;2024-02-21T10:28:40;7.93;;;2.60;;
81912;SDS011;71377;50.698;7.164;2024-02-21T10:31:08;9.38;;;3.28;;
81912;SDS011;71377;50.698;7.164;2024-02-21T10:33:36;8.73;;;2.75;;
81912;SDS011;71377;50.698;7.164;2024-02-21T10:36:07;9.30;;;2.83;;
81912;SDS011;71377;50.698;7.164;2024-02-21T10:38:38;7.57;;;2.67;;
81912;SDS011;71377;50.698;7.164;2024-02-21T10:41:06;8.07;;;2.85;;
81912;SDS011;71377;50.698;7.164;2024-02-21T10:43:35;7.55;;;2.72;;
81912;SDS011;71377;50.698;7.164;2024-02-21T10:46:06;10.15;;;3.00;;
81912;SDS011;71377;50.698;7.164;2024-02-21T10:48:44;7.03;;;2.78;;
81912;SDS011;71377;50.698;7.164;2024-02-21T10:51:14;8.90;;;3.28;;
81912;SDS011;71377;50.698;7.164;2024-02-21T10:56:26;6.85;;;2.28;;
81912;SDS011;71377;50.698;7.164;2024-02-21T10:59:06;7.88;;;2.88;;
81912;SDS011;71377;50.698;7.164;2024-02-21T11:01:34;9.70;;;2.75;;
81912;SDS011;71377;50.698;7.164;2024-02-21T11:04:06;7.25;;;2.33;;
81912;SDS011;71377;50.698;7.164;2024-02-21T11:06:37;7.72;;;2.65;;
81912;SDS011;71377;50.698;7.164;2024-02-21T11:09:06;8.20;;;2.38;;
81912;SDS011;71377;50.698;7.164;2024-02-21T11:11:35;7.93;;;2.78;;
81912;SDS011;71377;50.698;7.164;2024-02-21T11:14:22;7.70;;;2.55;;
81912;SDS011;71377;50.698;7.164;2024-02-21T11:16:48;5.68;;;2.30;;
81912;SDS011;71377;50.698;7.164;2024-02-21T11:19:27;4.25;;;2.00;;
81912;SDS011;71377;50.698;7.164;2024-02-21T11:21:56;6.65;;;2.17;;
81912;SDS011;71377;50.698;7.164;2024-02-21T11:24:31;7.75;;;2.47;;
81912;SDS011;71377;50.698;7.164;2024-02-21T11:27:08;5.88;;;2.20;;
81912;SDS011;71377;50.698;7.164;2024-02-21T11:32:14;8.65;;;2.22;;
81912;SDS011;71377;50.698;7.164;2024-02-21T11:34:41;7.30;;;1.90;;
81912;SDS011;71377;50.698;7.164;2024-02-21T11:37:18;5.95;;;2.10;;
81912;SDS011;71377;50.698;7.164;2024-02-21T11:39:45;9.50;;;2.63;;
81912;SDS011;71377;50.698;7.164;2024-02-21T11:42:12;6.03;;;2.42;;
81912;SDS011;71377;50.698;7.164;2024-02-21T11:44:38;6.28;;;2.47;;
81912;SDS011;71377;50.698;7.164;2024-02-21T11:47:06;7.35;;;2.40;;
81912;SDS011;71377;50.698;7.164;2024-02-21T11:49:37;5.22;;;2.35;;
81912;SDS011;71377;50.698;7.164;2024-02-21T11:52:05;7.57;;;2.15;;
81912;SDS011;71377;50.698;7.164;2024-02-21T11:54:33;6.30;;;2.45;;
81912;SDS011;71377;50.698;7.164;2024-02-21T11:57:00;6.00;;;2.38;;
81912;SDS011;71377;50.698;7.164;2024-02-21T11:59:29;6.57;;;2.30;;
81912;SDS011;71377;50.698;7.164;2024-02-21T12:01:57;9.38;;;2.30;;
81912;SDS011;71377;50.698;7.164;2024-02-21T12:04:25;5.18;;;2.10;;
81912;SDS011;71377;50.698;7.164;2024-02-21T12:06:54;6.93;;;2.42;;
81912;SDS011;71377;50.698;7.164;2024-02-21T12:09:24;5.03;;;1.95;;
81912;SDS011;71377;50.698;7.164;2024-02-21T12:14:32;6.75;;;2.03;;
81912;SDS011;71377;50.698;7.164;2024-02-21T12:17:01;6.43;;;1.80;;
81912;SDS011;71377;50.698;7.164;2024-02-21T12:19:30;4.53;;;1.90;;
81912;SDS011;71377;50.698;7.164;2024-02-21T12:22:00;6.25;;;2.50;;
81912;SDS011;71377;50.698;7.164;2024-02-21T12:24:28;8.90;;;2.13;;
81912;SDS011;71377;50.698;7.164;2024-02-21T12:26:55;7.38;;;2.60;;
81912;SDS011;71377;50.698;7.164;2024-02-21T12:29:23;6.20;;;2.15;;
81912;SDS011;71377;50.698;7.164;2024-02-21T12:31:51;8.50;;;2.63;;
81912;SDS011;71377;50.698;7.164;2024-02-21T12:34:17;7.30;;;2.38;;
81912;SDS011;71377;50.698;7.164;2024-02-21T12:36:59;8.60;;;2.67;;
81912;SDS011;71377;50.698;7.164;2024-02-21T12:39:26;7.75;;;2.15;;
81912;SDS011;71377;50.698;7.164;2024-02-21T12:41:55;5.75;;;2.25;;
81912;SDS011;71377;50.698;7.164;2024-02-21T12:44:24;4.80;;;2.33;;
81912;SDS011;71377;50.698;7.164;2024-02-21T12:46:51;4.93;;;2.30;;
81912;SDS011;71377;50.698;7.164;2024-02-21T12:49:18;7.82;;;2.38;;
81912;SDS011;71377;50.698;7.164;2024-02-21T12:51:44;6.53;;;2.38;;
81912;SDS011;71377;50.698;7.164;2024-02-21T12:54:12;6.38;;;2.42;;
81912;SDS011;71377;50.698;7.164;2024-02-21T12:56:39;5.85;;;2.40;;
81912;SDS011;71377;50.698;7.164;2024-02-21T12:59:06;4.45;;;2.42;;
81912;SDS011;71377;50.698;7.164;2024-02-21T13:01:36;5.32;;;2.28;;
81912;SDS011;71377;50.698;7.164;2024-02-21T13:04:04;8.05;;;2.53;;
81912;SDS011;71377;50.698;7.164;2024-02-21T13:06:31;6.45;;;2.40;;
81912;SDS011;71377;50.698;7.164;2024-02-21T13:08:57;4.18;;;2.22;;
81912;SDS011;71377;50.698;7.164;2024-02-21T13:11:25;6.95;;;2.28;;
81912;SDS011;71377;50.698;7.164;2024-02-21T13:13:54;10.70;;;2.70;;
81912;SDS011;71377;50.698;7.164;2024-02-21T13:16:21;5.70;;;2.38;;
81912;SDS011;71377;50.698;7.164;2024-02-21T13:18:48;8.13;;;2.80;;
81912;SDS011;71377;50.698;7.164;2024-02-21T13:21:15;7.35;;;2.45;;
81912;SDS011;71377;50.698;7.164;2024-02-21T13:23:42;6.82;;;2.63;;
81912;SDS011;71377;50.698;7.164;2024-02-21T13:26:10;6.53;;;2.42;;
81912;SDS011;71377;50.698;7.164;2024-02-21T13:28:37;5.80;;;2.45;;
81912;SDS011;71377;50.698;7.164;2024-02-21T13:31:04;4.45;;;2.28;;
81912;SDS011;71377;50.698;7.164;2024-02-21T13:33:30;7.32;;;2.47;;
81912;SDS011;71377;50.698;7.164;2024-02-21T13:35:57;6.35;;;2.25;;
81912;SDS011;71377;50.698;7.164;2024-02-21T13:38:23;5.43;;;2.53;;
81912;SDS011;71377;50.698;7.164;2024-02-21T13:40:50;7.03;;;2.60;;
81912;SDS011;71377;50.698;7.164;2024-02-21T13:43:17;8.45;;;2.53;;
81912;SDS011;71377;50.698;7.164;2024-02-21T13:45:45;7.40;;;2.72;;
81912;SDS011;71377;50.698;7.164;2024-02-21T13:48:22;5.38;;;2.33;;
81912;SDS011;71377;50.698;7.164;2024-02-21T13:50:48;6.70;;;2.13;;
81912;SDS011;71377;50.698;7.164;2024-02-21T13:53:15;6.20;;;2.58;;
81912;SDS011;71377;50.698;7.164;2024-02-21T13:55:44;9.85;;;2.70;;
81912;SDS011;71377;50.698;7.164;2024-02-21T13:58:11;5.18;;;2.22;;
81912;SDS011;71377;50.698;7.164;2024-02-21T14:00:37;6.85;;;2.35;;
81912;SDS011;71377;50.698;7.164;2024-02-21T14:03:04;8.63;;;2.60;;
81912;SDS011;71377;50.698;7.164;2024-02-21T14:05:30;6.63;;;2.28;;
81912;SDS011;71377;50.698;7.164;2024-02-21T14:07:57;9.65;;;2.47;;
81912;SDS011;71377;50.698;7.164;2024-02-21T14:10:23;7.95;;;2.75;;
81912;SDS011;71377;50.698;7.164;2024-02-21T14:12:50;8.80;;;2.50;;
81912;SDS011;71377;50.698;7.164;2024-02-21T14:15:16;5.82;;;2.63;;
81912;SDS011;71377;50.698;7.164;2024-02-21T14:17:43;7.72;;;2.40;;
81912;SDS011;71377;50.698;7.164;2024-02-21T14:20:09;6.35;;;2.50;;
81912;SDS011;71377;50.698;7.164;2024-02-21T14:22:40;9.32;;;2.53;;
81912;SDS011;71377;50.698;7.164;2024-02-21T14:25:07;8.43;;;2.70;;
81912;SDS011;71377;50.698;7.164;2024-02-21T14:27:33;5.32;;;2.22;;
81912;SDS011;71377;50.698;7.164;2024-02-21T14:30:02;5.13;;;2.20;;
81912;SDS011;71377;50.698;7.164;2024-02-21T14:32:29;7.57;;;2.67;;
81912;SDS011;71377;50.698;7.164;2024-02-21T14:34:56;10.57;;;2.75;;
81912;SDS011;71377;50.698;7.164;2024-02-21T14:37:22;6.68;;;2.20;;
81912;SDS011;71377;50.698;7.164;2024-02-21T14:39:49;7.53;;;2.88;;
81912;SDS011;71377;50.698;7.164;2024-02-21T14:42:15;7.95;;;2.50;;
81912;SDS011;71377;50.698;7.164;2024-02-21T14:44:41;7.65;;;2.30;;
81912;SDS011;71377;50.698;7.164;2024-02-21T14:47:08;4.45;;;2.45;;
81912;SDS011;71377;50.698;7.164;2024-02-21T14:49:35;6.25;;;2.30;;
81912;SDS011;71377;50.698;7.164;2024-02-21T14:52:02;6.35;;;2.10;;
81912;SDS011;71377;50.698;7.164;2024-02-21T14:54:29;7.40;;;2.20;;
81912;SDS011;71377;50.698;7.164;2024-02-21T14:56:55;6.25;;;2.47;;